Daisinmaru No.11 — JK5352 — position and weather

sailwx.info

Track history (hours):
 
Tides and Currents Weather Stations Pressure Air Temp Water Temp Dewpoint Dewpoint Depression Visibility Wind Speed Wind Dir Waves Ship Positions

Daisinmaru No.11

Last reported at 2018-Apr-17 06:24 UTC. Time now 2018-Apr-19 11:30 UTC.
Position N 35°32' E 139°46'.

Length 52 m.

MMSI: 431000667.

Date/timePositionNaut miles runAvg speedWind from/ knotsBaromVisibWave heightAir tempDewpointWater temp
2018-Apr-17 06:24N 35°32' E 139°46'0 0.0
2018-Apr-17 06:00N 35°32' E 139°46'0 0.0
2018-Apr-17 05:30N 35°32' E 139°46'0 0.0
2018-Apr-17 05:00N 35°32' E 139°46'0 0.0
2018-Apr-17 04:30N 35°32' E 139°46'0 0.0
2018-Apr-17 04:00N 35°32' E 139°46'0 0.0
2018-Apr-17 03:30N 35°32' E 139°46'0 0.0
2018-Apr-17 03:00N 35°32' E 139°46'0 0.0
2018-Apr-17 02:30N 35°32' E 139°46'0 0.0
2018-Apr-17 02:00N 35°32' E 139°46'0 0.0
2018-Apr-17 01:30N 35°32' E 139°46'0 0.0
2018-Apr-17 01:00N 35°32' E 139°46'0 0.0
2018-Apr-17 00:30N 35°32' E 139°46'0 0.0
2018-Apr-17 00:00N 35°32' E 139°46'0 0.0
2018-Apr-16 23:29N 35°32' E 139°46'0 0.1
2018-Apr-16 23:00N 35°32' E 139°46'3 5.6
2018-Apr-16 22:30N 35°30' E 139°48'611.0
2018-Apr-16 22:00N 35°29' E 139°55'4 8.3
2018-Apr-16 21:29N 35°28' E 139°60'0 0.0
2018-Apr-16 20:59N 35°28' E 139°60'0 0.0
2018-Apr-16 01:03N 35°28' E 139°60'0 0.1
2018-Apr-16 01:00N 35°28' E 139°60'0 0.1
2018-Apr-16 00:28N 35°27' E 139°60'0 0.0
2018-Apr-16 00:00N 35°27' E 139°60'0 0.0
2018-Apr-15 23:30N 35°27' E 139°60'0 0.0
2018-Apr-14 06:04N 35°27' E 139°60'0 0.1
2018-Apr-14 06:00N 35°27' E 139°60'0 0.0
2018-Apr-14 05:30N 35°27' E 139°60'0 0.0
2018-Apr-14 05:00N 35°27' E 139°60'0 0.0
2018-Apr-14 04:27N 35°27' E 139°60'0 0.0
2018-Apr-14 03:59N 35°27' E 139°60'0 0.0
2018-Apr-14 03:30N 35°27' E 139°60'0 0.0
2018-Apr-14 02:59N 35°27' E 139°60'0 0.0
2018-Apr-14 02:30N 35°27' E 139°60'0 0.5
2018-Apr-14 02:00N 35°28' E 139°60'4 8.3
2018-Apr-14 01:30N 35°30' E 139°56'7 8.9
2018-Apr-14 00:46N 35°34' E 139°49'2 7.2
2018-Apr-14 00:28N 35°35' E 139°46'0 0.0
2018-Apr-13 23:55N 35°35' E 139°46'0 0.0
2018-Apr-13 23:21N 35°35' E 139°46'0 0.0
2018-Apr-13 22:58N 35°35' E 139°46'0 0.0
2018-Apr-13 06:37N 35°35' E 139°46'0 0.0
2018-Apr-13 06:29N 35°35' E 139°46'0 0.0
2018-Apr-13 06:00N 35°35' E 139°46'0 0.0
2018-Apr-13 05:30N 35°35' E 139°46'0 0.0
2018-Apr-13 04:59N 35°35' E 139°46'0 0.0
2018-Apr-13 04:30N 35°35' E 139°46'0 0.0
2018-Apr-13 04:00N 35°35' E 139°46'0 0.0
2018-Apr-13 03:26N 35°35' E 139°46'0 0.0
2018-Apr-13 02:59N 35°35' E 139°46'0 0.0
2018-Apr-13 02:30N 35°35' E 139°46'0 0.0
2018-Apr-13 02:00N 35°35' E 139°46'0 0.0
2018-Apr-13 01:28N 35°35' E 139°46'0 0.0
2018-Apr-13 01:00N 35°35' E 139°46'0 0.0
2018-Apr-13 00:29N 35°35' E 139°46'0 0.0
2018-Apr-12 04:39N 35°35' E 139°46'0 0.0
2018-Apr-12 04:30N 35°35' E 139°46'0 0.0
2018-Apr-12 01:45N 35°35' E 139°46'0 0.0
2018-Apr-12 00:40N 35°35' E 139°46'0 0.0
2018-Apr-12 00:29N 35°35' E 139°46'0 0.0
2018-Apr-11 22:53N 35°35' E 139°46'3 9.1
2018-Apr-11 22:30N 35°33' E 139°50'510.4
2018-Apr-11 22:00N 35°30' E 139°56'4 8.2
2018-Apr-11 21:28N 35°27' E 139°60'0 0.0
2018-Apr-11 21:00N 35°27' E 139°60'0 0.0
2018-Apr-11 02:47N 35°27' E 139°60'0 0.0
2018-Apr-11 02:30N 35°27' E 139°60'0 0.0
2018-Apr-11 02:00N 35°27' E 139°60'0 0.0
2018-Apr-11 01:27N 35°27' E 139°60'0 0.0
2018-Apr-11 00:59N 35°27' E 139°60'0 0.0
2018-Apr-11 00:30N 35°27' E 139°60'0 0.0
2018-Apr-11 00:00N 35°27' E 139°60'0 0.0
2018-Apr-10 23:30N 35°27' E 139°60'0 0.3
2018-Apr-10 23:00N 35°27' E 139°60'0 0.0
2018-Apr-10 09:05N 35°27' E 139°60'0 0.1
2018-Apr-10 09:01N 35°27' E 139°60'0 0.3
2018-Apr-10 08:30N 35°27' E 139°60'1 2.3
2018-Apr-10 08:00N 35°28' E 139°59'10 8.4
2018-Apr-10 06:47N 35°34' E 139°48'2 5.6
2018-Apr-10 06:29N 35°35' E 139°46'0 0.0
2018-Apr-10 05:54N 35°35' E 139°46'0 0.0
2018-Apr-10 05:30N 35°35' E 139°46'0 0.0
2018-Apr-10 03:38N 35°35' E 139°46'0 0.0
2018-Apr-10 03:22N 35°35' E 139°46'0 0.0
2018-Apr-10 03:00N 35°35' E 139°46'0 0.0
2018-Apr-10 02:30N 35°35' E 139°46'0 0.0
2018-Apr-10 01:50N 35°35' E 139°46'0 0.0
2018-Apr-10 01:20N 35°35' E 139°46'0 0.0
2018-Apr-10 00:55N 35°35' E 139°46'0 0.0
2018-Apr-10 00:30N 35°35' E 139°46'0 0.0
2018-Apr-10 00:00N 35°35' E 139°46'0 0.0
2018-Apr-09 23:30N 35°35' E 139°46'0 0.0
2018-Apr-09 03:22N 35°35' E 139°46'0 0.0
2018-Apr-09 02:47N 35°35' E 139°46'0 0.0
2018-Apr-09 02:30N 35°35' E 139°46'0 0.0
2018-Apr-09 01:59N 35°35' E 139°46'0 0.0
2018-Apr-09 01:27N 35°35' E 139°46'0 0.0
2018-Apr-09 00:59N 35°35' E 139°46'2 3.7
2018-Apr-09 00:30N 35°34' E 139°48'510.1
2018-Apr-09 00:00N 35°31' E 139°54'510.1
2018-Apr-08 23:31N 35°29' E 139°59'1 2.6
2018-Apr-08 22:59N 35°27' E 139°60'0 0.0
2018-Apr-08 22:25N 35°27' E 139°60'0 0.0
2018-Apr-08 21:59N 35°27' E 139°60'  
Track history (hours):
 
Tides and Currents Weather Stations Pressure Air Temp Water Temp Dewpoint Dewpoint Depression Visibility Wind Speed Wind Dir Waves Ship Positions

Daisinmaru No.11

Last reported at 2018-Apr-17 06:24 UTC. Time now 2018-Apr-19 11:30 UTC.
Position N 35°32' E 139°46'.

Length 52 m.

MMSI: 431000667.

Date/timePositionNaut miles runAvg speedWind from/ knotsBaromVisibWave heightAir tempDewpointWater temp
2018-Apr-17 06:24N 35°32' E 139°46'0 0.0
2018-Apr-17 06:00N 35°32' E 139°46'0 0.0
2018-Apr-17 05:30N 35°32' E 139°46'0 0.0
2018-Apr-17 05:00N 35°32' E 139°46'0 0.0
2018-Apr-17 04:30N 35°32' E 139°46'0 0.0
2018-Apr-17 04:00N 35°32' E 139°46'0 0.0
2018-Apr-17 03:30N 35°32' E 139°46'0 0.0
2018-Apr-17 03:00N 35°32' E 139°46'0 0.0
2018-Apr-17 02:30N 35°32' E 139°46'0 0.0
2018-Apr-17 02:00N 35°32' E 139°46'0 0.0
2018-Apr-17 01:30N 35°32' E 139°46'0 0.0
2018-Apr-17 01:00N 35°32' E 139°46'0 0.0
2018-Apr-17 00:30N 35°32' E 139°46'0 0.0
2018-Apr-17 00:00N 35°32' E 139°46'0 0.0
2018-Apr-16 23:29N 35°32' E 139°46'0 0.1
2018-Apr-16 23:00N 35°32' E 139°46'3 5.6
2018-Apr-16 22:30N 35°30' E 139°48'611.0
2018-Apr-16 22:00N 35°29' E 139°55'4 8.3
2018-Apr-16 21:29N 35°28' E 139°60'0 0.0
2018-Apr-16 20:59N 35°28' E 139°60'0 0.0
2018-Apr-16 01:03N 35°28' E 139°60'0 0.1
2018-Apr-16 01:00N 35°28' E 139°60'0 0.1
2018-Apr-16 00:28N 35°27' E 139°60'0 0.0
2018-Apr-16 00:00N 35°27' E 139°60'0 0.0
2018-Apr-15 23:30N 35°27' E 139°60'0 0.0
2018-Apr-14 06:04N 35°27' E 139°60'0 0.1
2018-Apr-14 06:00N 35°27' E 139°60'0 0.0
2018-Apr-14 05:30N 35°27' E 139°60'0 0.0
2018-Apr-14 05:00N 35°27' E 139°60'0 0.0
2018-Apr-14 04:27N 35°27' E 139°60'0 0.0
2018-Apr-14 03:59N 35°27' E 139°60'0 0.0
2018-Apr-14 03:30N 35°27' E 139°60'0 0.0
2018-Apr-14 02:59N 35°27' E 139°60'0 0.0
2018-Apr-14 02:30N 35°27' E 139°60'0 0.5
2018-Apr-14 02:00N 35°28' E 139°60'4 8.3
2018-Apr-14 01:30N 35°30' E 139°56'7 8.9
2018-Apr-14 00:46N 35°34' E 139°49'2 7.2
2018-Apr-14 00:28N 35°35' E 139°46'0 0.0
2018-Apr-13 23:55N 35°35' E 139°46'0 0.0
2018-Apr-13 23:21N 35°35' E 139°46'0 0.0
2018-Apr-13 22:58N 35°35' E 139°46'0 0.0
2018-Apr-13 06:37N 35°35' E 139°46'0 0.0
2018-Apr-13 06:29N 35°35' E 139°46'0 0.0
2018-Apr-13 06:00N 35°35' E 139°46'0 0.0
2018-Apr-13 05:30N 35°35' E 139°46'0 0.0
2018-Apr-13 04:59N 35°35' E 139°46'0 0.0
2018-Apr-13 04:30N 35°35' E 139°46'0 0.0
2018-Apr-13 04:00N 35°35' E 139°46'0 0.0
2018-Apr-13 03:26N 35°35' E 139°46'0 0.0
2018-Apr-13 02:59N 35°35' E 139°46'0 0.0
2018-Apr-13 02:30N 35°35' E 139°46'0 0.0
2018-Apr-13 02:00N 35°35' E 139°46'0 0.0
2018-Apr-13 01:28N 35°35' E 139°46'0 0.0
2018-Apr-13 01:00N 35°35' E 139°46'0 0.0
2018-Apr-13 00:29N 35°35' E 139°46'0 0.0
2018-Apr-12 04:39N 35°35' E 139°46'0 0.0
2018-Apr-12 04:30N 35°35' E 139°46'0 0.0
2018-Apr-12 01:45N 35°35' E 139°46'0 0.0
2018-Apr-12 00:40N 35°35' E 139°46'0 0.0
2018-Apr-12 00:29N 35°35' E 139°46'0 0.0
2018-Apr-11 22:53N 35°35' E 139°46'3 9.1
2018-Apr-11 22:30N 35°33' E 139°50'510.4
2018-Apr-11 22:00N 35°30' E 139°56'4 8.2
2018-Apr-11 21:28N 35°27' E 139°60'0 0.0
2018-Apr-11 21:00N 35°27' E 139°60'0 0.0
2018-Apr-11 02:47N 35°27' E 139°60'0 0.0
2018-Apr-11 02:30N 35°27' E 139°60'0 0.0
2018-Apr-11 02:00N 35°27' E 139°60'0 0.0
2018-Apr-11 01:27N 35°27' E 139°60'0 0.0
2018-Apr-11 00:59N 35°27' E 139°60'0 0.0
2018-Apr-11 00:30N 35°27' E 139°60'0 0.0
2018-Apr-11 00:00N 35°27' E 139°60'0 0.0
2018-Apr-10 23:30N 35°27' E 139°60'0 0.3
2018-Apr-10 23:00N 35°27' E 139°60'0 0.0
2018-Apr-10 09:05N 35°27' E 139°60'0 0.1
2018-Apr-10 09:01N 35°27' E 139°60'0 0.3
2018-Apr-10 08:30N 35°27' E 139°60'1 2.3
2018-Apr-10 08:00N 35°28' E 139°59'10 8.4
2018-Apr-10 06:47N 35°34' E 139°48'2 5.6
2018-Apr-10 06:29N 35°35' E 139°46'0 0.0
2018-Apr-10 05:54N 35°35' E 139°46'0 0.0
2018-Apr-10 05:30N 35°35' E 139°46'0 0.0
2018-Apr-10 03:38N 35°35' E 139°46'0 0.0
2018-Apr-10 03:22N 35°35' E 139°46'0 0.0
2018-Apr-10 03:00N 35°35' E 139°46'0 0.0
2018-Apr-10 02:30N 35°35' E 139°46'0 0.0
2018-Apr-10 01:50N 35°35' E 139°46'0 0.0
2018-Apr-10 01:20N 35°35' E 139°46'0 0.0
2018-Apr-10 00:55N 35°35' E 139°46'0 0.0
2018-Apr-10 00:30N 35°35' E 139°46'0 0.0
2018-Apr-10 00:00N 35°35' E 139°46'0 0.0
2018-Apr-09 23:30N 35°35' E 139°46'0 0.0
2018-Apr-09 03:22N 35°35' E 139°46'0 0.0
2018-Apr-09 02:47N 35°35' E 139°46'0 0.0
2018-Apr-09 02:30N 35°35' E 139°46'0 0.0
2018-Apr-09 01:59N 35°35' E 139°46'0 0.0
2018-Apr-09 01:27N 35°35' E 139°46'0 0.0
2018-Apr-09 00:59N 35°35' E 139°46'2 3.7
2018-Apr-09 00:30N 35°34' E 139°48'510.1
2018-Apr-09 00:00N 35°31' E 139°54'510.1
2018-Apr-08 23:31N 35°29' E 139°59'1 2.6
2018-Apr-08 22:59N 35°27' E 139°60'0 0.0
2018-Apr-08 22:25N 35°27' E 139°60'0 0.0
2018-Apr-08 21:59N 35°27' E 139°60'  

Dump ship's entire track history